createdAt,value
2022-10-18T00:02:08.351Z,5.25
2022-10-18T00:04:34.999Z,5.50
2022-10-18T00:07:01.564Z,6.07
2022-10-18T00:09:28.152Z,6.15
2022-10-18T00:11:55.693Z,5.93
2022-10-18T00:14:22.835Z,6.25
2022-10-18T00:16:49.466Z,5.30
2022-10-18T00:19:16.002Z,5.55
2022-10-18T00:24:14.354Z,4.78
2022-10-18T00:26:40.936Z,4.60
2022-10-18T00:29:07.494Z,4.70
2022-10-18T00:31:36.208Z,4.38
2022-10-18T00:34:06.174Z,5.10
2022-10-18T00:36:34.321Z,4.20
2022-10-18T00:39:02.491Z,4.57
2022-10-18T00:41:31.099Z,4.20
2022-10-18T00:44:07.342Z,4.10
2022-10-18T00:46:36.131Z,3.45
2022-10-18T00:49:06.645Z,4.60
2022-10-18T00:52:13.536Z,4.18
2022-10-18T00:54:42.097Z,4.53
2022-10-18T00:57:08.904Z,4.28
2022-10-18T00:59:36.007Z,4.63
2022-10-18T01:02:02.894Z,4.43
2022-10-18T01:04:29.448Z,4.00
2022-10-18T01:07:25.475Z,38.65
2022-10-18T01:10:13.966Z,4.30
2022-10-18T01:13:07.860Z,125.18
2022-10-18T01:15:57.511Z,999.90
2022-10-18T01:18:40.411Z,999.90
2022-10-18T01:21:23.089Z,999.90
2022-10-18T01:24:20.595Z,999.90
2022-10-18T01:27:08.610Z,999.90
2022-10-18T01:29:53.818Z,999.90
2022-10-18T01:32:27.184Z,999.90
2022-10-18T01:34:59.816Z,999.90
2022-10-18T01:37:28.171Z,3.83
2022-10-18T01:39:56.017Z,3.40
2022-10-18T01:44:50.873Z,3.42
2022-10-18T01:47:18.359Z,3.50
2022-10-18T01:49:44.935Z,3.85
2022-10-18T01:52:15.865Z,4.10
2022-10-18T01:54:48.985Z,3.60
2022-10-18T01:57:21.471Z,4.55
2022-10-18T02:00:29.875Z,3.70
2022-10-18T02:03:06.988Z,3.67
2022-10-18T02:05:40.469Z,3.58
2022-10-18T02:08:26.362Z,3.97
2022-10-18T02:11:01.574Z,3.97
2022-10-18T02:13:33.645Z,4.28
2022-10-18T02:16:05.413Z,3.95
2022-10-18T02:18:55.983Z,3.78
2022-10-18T02:21:23.174Z,3.88
2022-10-18T02:23:50.204Z,3.50
2022-10-18T02:26:16.903Z,3.75
2022-10-18T02:28:43.994Z,4.18
2022-10-18T02:31:24.131Z,5.45
2022-10-18T02:33:52.794Z,4.53
2022-10-18T02:36:27.416Z,3.45
2022-10-18T02:38:58.821Z,3.90
2022-10-18T02:41:26.607Z,3.90
2022-10-18T02:46:20.505Z,3.53
2022-10-18T02:48:47.121Z,4.28
2022-10-18T02:51:13.664Z,3.45
2022-10-18T02:53:40.317Z,3.50
2022-10-18T02:56:06.970Z,3.38
2022-10-18T02:58:33.455Z,3.80
2022-10-18T03:01:00.381Z,3.58
2022-10-18T03:03:26.954Z,3.42
2022-10-18T03:05:53.494Z,4.00
2022-10-18T03:08:20.120Z,3.80
2022-10-18T03:10:47.068Z,3.88
2022-10-18T03:13:13.941Z,3.60
2022-10-18T03:15:40.554Z,3.42
2022-10-18T03:18:07.129Z,3.58
2022-10-18T03:20:35.175Z,3.30
2022-10-18T03:23:03.236Z,3.53
2022-10-18T03:25:29.768Z,3.40
2022-10-18T03:27:56.319Z,3.78
2022-10-18T03:30:22.837Z,3.65
2022-10-18T03:32:49.372Z,3.65
2022-10-18T03:35:16.081Z,3.30
2022-10-18T03:37:42.679Z,3.88
2022-10-18T03:40:09.468Z,3.78
2022-10-18T03:42:36.203Z,3.90
2022-10-18T03:45:02.790Z,3.35
2022-10-18T03:47:29.303Z,3.95
2022-10-18T03:49:57.237Z,3.53
2022-10-18T03:52:24.361Z,3.30
2022-10-18T03:54:50.878Z,3.40
2022-10-18T03:57:17.406Z,3.20
2022-10-18T03:59:44.181Z,3.88
2022-10-18T04:02:10.785Z,4.07
2022-10-18T04:04:37.472Z,3.33
2022-10-18T04:07:04.074Z,3.70
2022-10-18T04:09:30.639Z,3.03
2022-10-18T04:11:57.166Z,4.28
2022-10-18T04:14:23.727Z,3.47
2022-10-18T04:16:50.334Z,3.03
2022-10-18T04:19:16.984Z,3.30
2022-10-18T04:21:43.492Z,3.05
2022-10-18T04:24:10.067Z,3.30
2022-10-18T04:26:36.653Z,3.30
2022-10-18T04:29:03.964Z,3.47
2022-10-18T04:31:30.802Z,3.28
2022-10-18T04:33:57.312Z,3.15
2022-10-18T04:36:23.800Z,2.97
2022-10-18T04:38:50.293Z,2.97
2022-10-18T04:41:16.813Z,3.17
2022-10-18T04:43:43.407Z,3.60
2022-10-18T04:46:10.007Z,3.28
2022-10-18T04:48:36.583Z,3.20
2022-10-18T04:51:03.270Z,3.25
2022-10-18T04:53:29.876Z,3.28
2022-10-18T04:55:56.455Z,2.72
2022-10-18T04:58:23.542Z,2.78
2022-10-18T05:00:50.365Z,2.88
2022-10-18T05:03:17.049Z,3.10
2022-10-18T05:06:00.927Z,3.60
2022-10-18T05:08:27.849Z,3.10
2022-10-18T05:10:54.556Z,3.50
2022-10-18T05:13:21.186Z,3.30
2022-10-18T05:15:47.776Z,3.58
2022-10-18T05:18:14.536Z,3.88
2022-10-18T05:20:41.055Z,3.20
2022-10-18T05:23:10.747Z,2.90
2022-10-18T05:25:41.210Z,2.97
2022-10-18T05:28:11.063Z,3.08
2022-10-18T05:30:47.821Z,3.25
2022-10-18T05:33:14.367Z,3.15
2022-10-18T05:35:40.840Z,2.90
2022-10-18T05:38:07.667Z,3.10
2022-10-18T05:40:34.253Z,3.10
2022-10-18T05:43:00.782Z,3.30
2022-10-18T05:45:27.412Z,2.95
2022-10-18T05:47:54.615Z,3.45
2022-10-18T05:50:21.139Z,3.35
2022-10-18T05:52:47.637Z,3.30
2022-10-18T05:55:14.257Z,3.78
2022-10-18T05:57:40.844Z,3.03
2022-10-18T06:00:08.097Z,3.47
2022-10-18T06:02:38.399Z,3.92
2022-10-18T06:05:05.166Z,3.65
2022-10-18T06:07:31.958Z,4.10
2022-10-18T06:09:58.686Z,3.70
2022-10-18T06:12:25.317Z,4.20
2022-10-18T06:14:51.896Z,3.88
2022-10-18T06:17:18.848Z,4.40
2022-10-18T06:19:45.593Z,3.72
2022-10-18T06:22:12.495Z,3.83
2022-10-18T06:24:38.987Z,3.92
2022-10-18T06:27:08.837Z,3.67
2022-10-18T06:29:36.226Z,4.10
2022-10-18T06:32:03.353Z,3.83
2022-10-18T06:34:29.896Z,4.50
2022-10-18T06:36:58.655Z,3.83
2022-10-18T06:39:25.864Z,3.65
2022-10-18T06:41:52.516Z,4.05
2022-10-18T06:44:20.353Z,3.75
2022-10-18T06:46:48.093Z,3.65
2022-10-18T06:51:46.140Z,3.30
2022-10-18T06:54:18.188Z,3.30
2022-10-18T06:56:45.150Z,3.40
2022-10-18T06:59:11.720Z,3.85
2022-10-18T07:01:38.455Z,3.85
2022-10-18T07:04:05.112Z,42.03
2022-10-18T07:06:31.601Z,3.50
2022-10-18T07:08:58.271Z,3.40
2022-10-18T07:11:26.742Z,3.30
2022-10-18T07:13:54.488Z,2.90
2022-10-18T07:16:21.371Z,2.90
2022-10-18T07:18:50.446Z,3.78
2022-10-18T07:21:19.376Z,3.33
2022-10-18T07:23:46.359Z,3.17
2022-10-18T07:26:20.018Z,3.83
2022-10-18T07:28:49.960Z,3.17
2022-10-18T07:31:16.599Z,3.38
2022-10-18T07:33:43.156Z,3.22
2022-10-18T07:36:11.045Z,3.42
2022-10-18T07:38:37.709Z,3.58
2022-10-18T07:41:06.802Z,3.13
2022-10-18T07:43:33.867Z,3.10
2022-10-18T07:46:02.850Z,3.25
2022-10-18T07:48:29.823Z,3.22
2022-10-18T07:51:00.625Z,3.20
2022-10-18T07:53:29.127Z,2.92
2022-10-18T07:56:01.341Z,3.38
2022-10-18T07:58:31.784Z,3.30
2022-10-18T08:01:02.370Z,3.70
2022-10-18T08:03:28.933Z,2.97
2022-10-18T08:05:55.567Z,3.50
2022-10-18T08:08:23.819Z,3.50
2022-10-18T08:10:50.910Z,3.08
2022-10-18T08:13:17.811Z,3.22
2022-10-18T08:15:44.562Z,2.92
2022-10-18T08:18:11.478Z,3.30
2022-10-18T08:20:42.730Z,3.20
2022-10-18T08:23:09.436Z,3.17
2022-10-18T08:28:07.564Z,3.50
2022-10-18T08:30:35.454Z,3.90
2022-10-18T08:33:02.824Z,3.30
2022-10-18T08:35:29.430Z,3.55
2022-10-18T08:37:55.949Z,3.22
2022-10-18T08:40:22.669Z,3.35
2022-10-18T08:43:22.029Z,3.63
2022-10-18T08:45:49.697Z,3.20
2022-10-18T08:48:39.053Z,3.90
2022-10-18T08:51:27.274Z,3.38
2022-10-18T08:54:11.388Z,4.10
2022-10-18T08:56:39.541Z,3.75
2022-10-18T08:59:10.357Z,4.00
2022-10-18T09:02:01.583Z,4.07
2022-10-18T09:05:07.103Z,3.55
2022-10-18T09:08:23.257Z,66.03
2022-10-18T09:11:06.111Z,3.95
2022-10-18T09:13:59.751Z,3.30
2022-10-18T09:16:40.411Z,3.28
2022-10-18T09:19:46.087Z,3.42
2022-10-18T09:22:14.423Z,3.63
2022-10-18T09:24:46.641Z,4.25
2022-10-18T09:27:18.887Z,4.45
2022-10-18T09:29:49.059Z,4.18
2022-10-18T09:32:25.420Z,3.80
2022-10-18T09:34:55.587Z,3.28
2022-10-18T09:37:22.338Z,3.10
2022-10-18T09:39:50.736Z,3.20
2022-10-18T09:42:36.051Z,3.67
2022-10-18T09:45:08.552Z,3.05
2022-10-18T09:47:39.451Z,2.85
2022-10-18T09:50:18.049Z,3.13
2022-10-18T09:52:53.441Z,2.70
2022-10-18T09:55:23.240Z,2.92
2022-10-18T09:57:56.476Z,2.78
2022-10-18T10:00:29.058Z,3.45
2022-10-18T10:02:56.176Z,2.92
2022-10-18T10:05:22.736Z,3.00
2022-10-18T10:07:49.376Z,2.85
2022-10-18T10:10:24.014Z,3.42
2022-10-18T10:13:05.896Z,3.40
2022-10-18T10:15:37.081Z,4.80
2022-10-18T10:18:19.242Z,4.55
2022-10-18T10:20:49.017Z,3.90
2022-10-18T10:23:30.747Z,4.13
2022-10-18T10:26:25.332Z,3.47
2022-10-18T10:28:52.197Z,3.25
2022-10-18T10:31:24.745Z,3.47
2022-10-18T10:34:18.485Z,3.28
2022-10-18T10:36:53.199Z,3.33
2022-10-18T10:39:22.331Z,3.63
2022-10-18T10:41:57.374Z,3.63
2022-10-18T10:44:29.610Z,3.58
2022-10-18T10:46:56.739Z,3.35
2022-10-18T10:49:45.767Z,3.50
2022-10-18T10:52:28.553Z,3.33
2022-10-18T10:57:48.725Z,2.90
2022-10-18T11:00:34.169Z,3.33
2022-10-18T11:03:33.749Z,3.38
2022-10-18T11:06:01.698Z,3.03
2022-10-18T11:08:41.133Z,3.20
2022-10-18T11:11:22.852Z,3.20
2022-10-18T11:14:13.257Z,3.28
2022-10-18T11:17:08.076Z,2.95
2022-10-18T11:19:43.005Z,3.20
2022-10-18T11:22:14.277Z,2.60
2022-10-18T11:24:41.419Z,3.28
2022-10-18T11:27:19.447Z,3.20
2022-10-18T11:30:01.510Z,3.60
2022-10-18T11:32:38.461Z,3.00
2022-10-18T11:35:43.481Z,2.75
2022-10-18T11:38:15.806Z,2.70
2022-10-18T11:41:22.528Z,2.58
2022-10-18T11:44:03.100Z,2.28
2022-10-18T11:46:54.841Z,2.38
2022-10-18T11:49:39.133Z,2.15
2022-10-18T11:52:14.022Z,2.22
2022-10-18T11:55:01.962Z,1.95
2022-10-18T11:57:50.409Z,2.65
2022-10-18T12:00:39.362Z,2.72
2022-10-18T12:03:24.340Z,2.20
2022-10-18T12:05:53.211Z,2.65
2022-10-18T12:08:31.509Z,2.10
2022-10-18T12:11:05.920Z,2.95
2022-10-18T12:13:52.364Z,2.17
2022-10-18T12:16:33.790Z,2.55
2022-10-18T12:19:12.541Z,2.53
2022-10-18T12:21:39.360Z,2.53
2022-10-18T12:24:13.595Z,2.80
2022-10-18T12:26:40.288Z,2.20
2022-10-18T12:29:18.384Z,2.55
2022-10-18T12:31:53.798Z,2.45
2022-10-18T12:34:23.838Z,2.35
2022-10-18T12:36:53.299Z,2.10
2022-10-18T12:39:45.089Z,2.38
2022-10-18T12:42:19.157Z,2.28
2022-10-18T12:44:46.476Z,2.65
2022-10-18T12:47:24.711Z,2.47
2022-10-18T12:50:01.975Z,3.10
2022-10-18T12:52:30.605Z,2.60
2022-10-18T12:55:18.285Z,2.58
2022-10-18T12:57:53.996Z,2.63
2022-10-18T13:00:29.705Z,2.75
2022-10-18T13:03:17.908Z,2.30
2022-10-18T13:05:55.933Z,2.40
2022-10-18T13:08:29.038Z,2.55
2022-10-18T13:11:01.394Z,2.10
2022-10-18T13:13:54.725Z,2.50
2022-10-18T13:17:00.607Z,2.22
2022-10-18T13:19:30.107Z,2.33
2022-10-18T13:22:30.548Z,2.00
2022-10-18T13:25:15.812Z,2.42
2022-10-18T13:27:56.273Z,2.00
2022-10-18T13:30:33.396Z,2.17
2022-10-18T13:33:34.821Z,1.90
2022-10-18T13:36:03.991Z,1.75
2022-10-18T13:38:57.824Z,1.90
2022-10-18T13:41:32.769Z,2.08
2022-10-18T13:44:30.669Z,2.20
2022-10-18T13:46:57.155Z,2.40
2022-10-18T13:49:40.204Z,2.45
2022-10-18T13:52:28.435Z,3.38
2022-10-18T13:55:19.320Z,2.60
2022-10-18T13:57:57.928Z,2.50
2022-10-18T14:00:49.133Z,2.90
2022-10-18T14:03:58.870Z,2.47
2022-10-18T14:06:33.531Z,2.63
2022-10-18T14:09:26.229Z,2.67
2022-10-18T14:12:33.526Z,2.80
2022-10-18T14:15:16.580Z,3.10
2022-10-18T14:17:51.931Z,3.60
2022-10-18T14:20:34.449Z,3.00
2022-10-18T14:23:12.927Z,3.20
2022-10-18T14:25:39.516Z,2.50
2022-10-18T14:28:12.321Z,2.80
2022-10-18T14:30:59.377Z,3.08
2022-10-18T14:36:19.677Z,2.30
2022-10-18T14:38:57.696Z,2.40
2022-10-18T14:41:29.607Z,2.40
2022-10-18T14:44:14.707Z,2.33
2022-10-18T14:47:04.470Z,2.40
2022-10-18T14:49:31.482Z,2.17
2022-10-18T14:51:59.556Z,2.22
2022-10-18T14:54:34.425Z,2.10
2022-10-18T14:57:05.575Z,1.98
2022-10-18T15:00:06.569Z,2.38
2022-10-18T15:15:33.506Z,2.53
2022-10-18T15:18:00.502Z,2.35
2022-10-18T15:20:32.647Z,2.47
2022-10-18T15:23:27.471Z,2.45
2022-10-18T15:26:02.448Z,2.60
2022-10-18T15:28:52.236Z,2.25
2022-10-18T15:31:24.549Z,2.58
2022-10-18T15:33:51.688Z,2.65
2022-10-18T15:36:29.717Z,2.60
2022-10-18T15:39:07.580Z,2.83
2022-10-18T15:41:46.128Z,2.70
2022-10-18T15:44:42.426Z,2.75
2022-10-18T15:47:12.502Z,2.72
2022-10-18T15:49:45.061Z,2.78
2022-10-18T15:52:35.190Z,2.72
2022-10-18T15:55:34.689Z,2.58
2022-10-18T15:58:06.405Z,2.97
2022-10-18T16:00:43.285Z,2.72
2022-10-18T16:03:14.690Z,2.80
2022-10-18T16:05:46.546Z,2.83
2022-10-18T16:08:49.391Z,2.47
2022-10-18T16:11:25.697Z,2.78
2022-10-18T16:13:55.215Z,2.97
2022-10-18T16:16:26.782Z,2.60
2022-10-18T16:18:53.611Z,2.63
2022-10-18T16:21:28.291Z,2.90
2022-10-18T16:23:55.084Z,3.45
2022-10-18T16:26:22.599Z,2.65
2022-10-18T16:28:50.229Z,2.80
2022-10-18T16:31:22.219Z,2.88
2022-10-18T16:33:50.829Z,3.10
2022-10-18T16:36:19.366Z,2.85
2022-10-18T16:38:46.386Z,2.70
2022-10-18T16:41:15.907Z,2.78
2022-10-18T16:43:44.507Z,2.88
2022-10-18T16:46:19.660Z,2.80
2022-10-18T16:48:46.826Z,3.40
2022-10-18T16:51:14.673Z,2.97
2022-10-18T16:53:41.772Z,2.80
2022-10-18T16:56:17.024Z,2.97
2022-10-18T16:58:43.950Z,3.10
2022-10-18T17:01:16.365Z,3.28
2022-10-18T17:03:43.637Z,2.92
2022-10-18T17:06:17.751Z,2.83
2022-10-18T17:08:44.473Z,3.13
2022-10-18T17:11:12.430Z,3.20
2022-10-18T17:13:40.057Z,3.47
2022-10-18T17:18:33.526Z,3.40
2022-10-18T17:21:03.046Z,3.55
2022-10-18T17:23:30.387Z,3.42
2022-10-18T17:26:05.356Z,3.80
2022-10-18T17:28:34.230Z,3.30
2022-10-18T17:31:00.919Z,3.63
2022-10-18T17:33:27.483Z,3.92
2022-10-18T17:35:54.076Z,3.60
2022-10-18T17:38:20.680Z,3.75
2022-10-18T17:40:47.628Z,3.47
2022-10-18T17:43:14.368Z,3.75
2022-10-18T17:45:54.662Z,3.78
2022-10-18T17:48:22.822Z,3.70
2022-10-18T17:50:49.378Z,3.90
2022-10-18T17:53:18.328Z,3.92
2022-10-18T17:55:45.045Z,3.72
2022-10-18T17:58:12.040Z,3.03
2022-10-18T18:00:38.772Z,4.00
2022-10-18T18:03:05.511Z,3.63
2022-10-18T18:05:34.044Z,3.50
2022-10-18T18:08:03.846Z,3.75
2022-10-18T18:10:33.370Z,3.65
2022-10-18T18:13:00.423Z,3.80
2022-10-18T18:15:27.098Z,3.70
2022-10-18T18:17:57.409Z,3.00
2022-10-18T18:20:26.456Z,3.47
2022-10-18T18:22:54.914Z,3.50
2022-10-18T18:25:21.576Z,3.30
2022-10-18T18:27:48.307Z,3.28
2022-10-18T18:30:17.638Z,3.40
2022-10-18T18:32:44.406Z,3.10
2022-10-18T18:35:11.081Z,3.67
2022-10-18T18:37:37.870Z,3.50
2022-10-18T18:40:04.760Z,3.38
2022-10-18T18:42:32.264Z,3.50
2022-10-18T18:47:27.046Z,3.30
2022-10-18T18:49:53.971Z,3.10
2022-10-18T18:52:20.530Z,3.33
2022-10-18T18:54:47.019Z,3.38
2022-10-18T18:57:13.604Z,3.50
2022-10-18T18:59:40.139Z,3.30
2022-10-18T19:02:06.721Z,3.85
2022-10-18T19:04:34.945Z,4.10
2022-10-18T19:07:02.545Z,3.63
2022-10-18T19:09:29.195Z,4.03
2022-10-18T19:11:56.538Z,3.50
2022-10-18T19:14:25.406Z,3.67
2022-10-18T19:16:53.916Z,3.53
2022-10-18T19:19:22.644Z,3.85
2022-10-18T19:22:00.684Z,3.80
2022-10-18T19:24:28.652Z,3.60
2022-10-18T19:27:00.828Z,4.28
2022-10-18T19:29:28.586Z,3.80
2022-10-18T19:31:57.339Z,3.45
2022-10-18T19:34:26.272Z,3.90
2022-10-18T19:36:52.886Z,4.18
2022-10-18T19:39:21.934Z,4.13
2022-10-18T19:41:50.994Z,3.92
2022-10-18T19:44:18.936Z,4.05
2022-10-18T19:46:45.634Z,4.00
2022-10-18T19:49:12.185Z,3.92
2022-10-18T19:51:38.784Z,3.95
2022-10-18T19:54:05.632Z,3.80
2022-10-18T19:56:32.212Z,3.80
2022-10-18T19:58:59.359Z,3.80
2022-10-18T20:01:27.998Z,4.22
2022-10-18T20:03:54.720Z,3.72
2022-10-18T20:06:21.631Z,3.90
2022-10-18T20:08:48.814Z,4.00
2022-10-18T20:11:17.755Z,4.13
2022-10-18T20:13:44.428Z,3.80
2022-10-18T20:16:12.650Z,3.88
2022-10-18T20:18:39.278Z,4.50
2022-10-18T20:21:07.116Z,3.90
2022-10-18T20:23:37.974Z,3.80
2022-10-18T20:26:10.733Z,3.92
2022-10-18T20:28:38.231Z,3.78
2022-10-18T20:31:07.390Z,4.18
2022-10-18T20:33:34.856Z,3.95
2022-10-18T20:36:09.893Z,4.38
2022-10-18T20:38:38.625Z,4.50
2022-10-18T20:41:16.911Z,4.70
2022-10-18T20:43:44.215Z,4.47
2022-10-18T20:46:10.954Z,4.30
2022-10-18T20:48:38.802Z,4.07
2022-10-18T20:51:12.684Z,4.20
2022-10-18T20:53:39.900Z,4.03
2022-10-18T20:56:14.596Z,3.88
2022-10-18T20:58:42.829Z,4.30
2022-10-18T21:01:30.820Z,4.50
2022-10-18T21:04:00.251Z,4.18
2022-10-18T21:06:28.829Z,4.47
2022-10-18T21:09:00.141Z,4.60
2022-10-18T21:11:28.244Z,3.92
2022-10-18T21:13:57.476Z,4.15
2022-10-18T21:16:24.235Z,4.30
2022-10-18T21:18:51.039Z,4.43
2022-10-18T21:21:24.691Z,5.63
2022-10-18T21:23:52.240Z,4.60
2022-10-18T21:26:23.570Z,5.35
2022-10-18T21:28:51.229Z,5.47
2022-10-18T21:31:20.557Z,6.35
2022-10-18T21:33:48.106Z,6.15
2022-10-18T21:36:14.891Z,6.00
2022-10-18T21:38:44.688Z,6.55
2022-10-18T21:41:13.315Z,5.97
2022-10-18T21:43:41.880Z,6.10
2022-10-18T21:46:10.043Z,5.82
2022-10-18T21:48:37.048Z,5.43
2022-10-18T21:51:07.865Z,5.80
2022-10-18T21:53:34.683Z,6.20
2022-10-18T21:56:09.803Z,5.35
2022-10-18T21:58:37.169Z,6.53
2022-10-18T22:01:09.397Z,6.20
2022-10-18T22:03:36.253Z,6.55
2022-10-18T22:06:09.521Z,5.55
2022-10-18T22:08:36.256Z,5.32
2022-10-18T22:11:03.162Z,5.60
2022-10-18T22:13:29.797Z,5.55
2022-10-18T22:15:56.450Z,5.63
2022-10-18T22:18:23.061Z,5.65
2022-10-18T22:21:00.558Z,4.72
2022-10-18T22:23:43.680Z,5.32
2022-10-18T22:26:23.271Z,5.32
2022-10-18T22:29:00.823Z,6.38
2022-10-18T22:31:29.870Z,5.95
2022-10-18T22:33:58.854Z,6.20
2022-10-18T22:36:26.334Z,7.00
2022-10-18T22:38:53.023Z,6.55
2022-10-18T22:41:20.080Z,6.82
2022-10-18T22:43:48.311Z,8.00
2022-10-18T22:46:15.422Z,8.00
2022-10-18T22:48:42.439Z,7.72
2022-10-18T22:51:09.673Z,7.20
2022-10-18T22:53:37.055Z,7.43
2022-10-18T22:56:04.272Z,7.57
2022-10-18T22:58:30.877Z,7.13
2022-10-18T23:01:05.708Z,22.75
2022-10-18T23:03:32.696Z,7.07
2022-10-18T23:05:59.619Z,6.50
2022-10-18T23:08:26.667Z,5.93
2022-10-18T23:10:55.552Z,5.72
2022-10-18T23:13:23.616Z,6.00
2022-10-18T23:15:50.483Z,6.20
2022-10-18T23:18:17.685Z,5.47
2022-10-18T23:20:44.803Z,5.72
2022-10-18T23:23:12.645Z,5.18
2022-10-18T23:25:39.407Z,4.72
2022-10-18T23:28:06.388Z,5.03
2022-10-18T23:30:33.772Z,4.75
2022-10-18T23:33:00.278Z,4.70
2022-10-18T23:35:29.309Z,4.97
2022-10-18T23:37:56.359Z,5.10
2022-10-18T23:40:22.851Z,4.93
2022-10-18T23:42:49.423Z,4.88
2022-10-18T23:45:16.025Z,5.60
2022-10-18T23:47:42.623Z,4.95
2022-10-18T23:50:09.831Z,5.45
2022-10-18T23:52:36.392Z,4.75
2022-10-18T23:55:03.007Z,5.03
2022-10-18T23:57:29.629Z,5.15
2022-10-18T23:59:56.266Z,4.97
